sensor_id;sensor_type;location;lat;lon;timestamp;temperature;humidity
14095;DHT22;18096;48.142;16.290;2022-08-25T00:00:00;21.90;87.40
14095;DHT22;18096;48.142;16.290;2022-08-25T00:02:25;21.90;87.50
14095;DHT22;18096;48.142;16.290;2022-08-25T00:04:51;21.90;87.70
14095;DHT22;18096;48.142;16.290;2022-08-25T00:07:17;21.90;88.30
14095;DHT22;18096;48.142;16.290;2022-08-25T00:09:42;21.90;87.80
14095;DHT22;18096;48.142;16.290;2022-08-25T00:12:08;21.90;88.00
14095;DHT22;18096;48.142;16.290;2022-08-25T00:14:35;21.90;88.00
14095;DHT22;18096;48.142;16.290;2022-08-25T00:17:02;21.90;88.00
14095;DHT22;18096;48.142;16.290;2022-08-25T00:19:31;21.90;88.20
14095;DHT22;18096;48.142;16.290;2022-08-25T00:21:58;21.80;88.30
14095;DHT22;18096;48.142;16.290;2022-08-25T00:24:25;21.80;88.50
14095;DHT22;18096;48.142;16.290;2022-08-25T00:26:53;21.80;88.60
14095;DHT22;18096;48.142;16.290;2022-08-25T00:29:20;21.80;88.60
14095;DHT22;18096;48.142;16.290;2022-08-25T00:31:46;21.80;88.90
14095;DHT22;18096;48.142;16.290;2022-08-25T00:34:19;21.80;88.60
14095;DHT22;18096;48.142;16.290;2022-08-25T00:36:45;21.80;88.60
14095;DHT22;18096;48.142;16.290;2022-08-25T00:39:11;21.80;88.60
14095;DHT22;18096;48.142;16.290;2022-08-25T00:41:40;21.80;88.70
14095;DHT22;18096;48.142;16.290;2022-08-25T00:44:09;21.80;88.80
14095;DHT22;18096;48.142;16.290;2022-08-25T00:46:38;21.80;88.80
14095;DHT22;18096;48.142;16.290;2022-08-25T00:49:14;21.80;88.90
14095;DHT22;18096;48.142;16.290;2022-08-25T00:51:51;21.80;89.10
14095;DHT22;18096;48.142;16.290;2022-08-25T00:54:23;21.70;89.20
14095;DHT22;18096;48.142;16.290;2022-08-25T00:56:49;21.70;89.20
14095;DHT22;18096;48.142;16.290;2022-08-25T00:59:19;21.70;89.30
14095;DHT22;18096;48.142;16.290;2022-08-25T01:01:46;21.70;89.40
14095;DHT22;18096;48.142;16.290;2022-08-25T01:04:12;21.70;89.40
14095;DHT22;18096;48.142;16.290;2022-08-25T01:06:40;21.70;89.50
14095;DHT22;18096;48.142;16.290;2022-08-25T01:09:08;21.70;89.50
14095;DHT22;18096;48.142;16.290;2022-08-25T01:11:34;21.70;89.50
14095;DHT22;18096;48.142;16.290;2022-08-25T01:14:00;21.70;89.60
14095;DHT22;18096;48.142;16.290;2022-08-25T01:16:34;21.70;89.70
14095;DHT22;18096;48.142;16.290;2022-08-25T01:19:00;21.70;89.80
14095;DHT22;18096;48.142;16.290;2022-08-25T01:21:28;21.70;89.80
14095;DHT22;18096;48.142;16.290;2022-08-25T01:23:56;21.70;89.90
14095;DHT22;18096;48.142;16.290;2022-08-25T01:26:26;21.70;89.90
14095;DHT22;18096;48.142;16.290;2022-08-25T01:28:53;21.70;89.90
14095;DHT22;18096;48.142;16.290;2022-08-25T01:31:38;21.70;90.00
14095;DHT22;18096;48.142;16.290;2022-08-25T01:34:05;21.70;90.00
14095;DHT22;18096;48.142;16.290;2022-08-25T01:36:32;21.70;90.00
14095;DHT22;18096;48.142;16.290;2022-08-25T01:38:58;21.70;90.10
14095;DHT22;18096;48.142;16.290;2022-08-25T01:43:58;21.70;90.10
14095;DHT22;18096;48.142;16.290;2022-08-25T01:46:25;21.60;90.10
14095;DHT22;18096;48.142;16.290;2022-08-25T01:48:51;21.60;90.10
14095;DHT22;18096;48.142;16.290;2022-08-25T01:51:19;21.60;90.10
14095;DHT22;18096;48.142;16.290;2022-08-25T01:53:45;21.60;90.10
14095;DHT22;18096;48.142;16.290;2022-08-25T01:56:13;21.60;90.10
14095;DHT22;18096;48.142;16.290;2022-08-25T01:58:42;21.60;90.20
14095;DHT22;18096;48.142;16.290;2022-08-25T02:01:12;21.60;90.20
14095;DHT22;18096;48.142;16.290;2022-08-25T02:03:43;21.60;90.20
14095;DHT22;18096;48.142;16.290;2022-08-25T02:06:16;21.60;90.20
14095;DHT22;18096;48.142;16.290;2022-08-25T02:08:42;21.60;90.30
14095;DHT22;18096;48.142;16.290;2022-08-25T02:11:14;21.60;90.30
14095;DHT22;18096;48.142;16.290;2022-08-25T02:13:41;21.60;90.30
14095;DHT22;18096;48.142;16.290;2022-08-25T02:16:08;21.50;90.30
14095;DHT22;18096;48.142;16.290;2022-08-25T02:18:34;21.50;90.40
14095;DHT22;18096;48.142;16.290;2022-08-25T02:20:59;21.50;90.40
14095;DHT22;18096;48.142;16.290;2022-08-25T02:23:25;21.50;90.40
14095;DHT22;18096;48.142;16.290;2022-08-25T02:25:51;21.50;90.40
14095;DHT22;18096;48.142;16.290;2022-08-25T02:28:17;21.60;90.40
14095;DHT22;18096;48.142;16.290;2022-08-25T02:30:43;21.60;90.50
14095;DHT22;18096;48.142;16.290;2022-08-25T02:33:10;21.50;90.50
14095;DHT22;18096;48.142;16.290;2022-08-25T02:35:36;21.50;90.50
14095;DHT22;18096;48.142;16.290;2022-08-25T02:38:02;21.50;90.50
14095;DHT22;18096;48.142;16.290;2022-08-25T02:40:28;21.50;90.50
14095;DHT22;18096;48.142;16.290;2022-08-25T02:42:54;21.50;90.60
14095;DHT22;18096;48.142;16.290;2022-08-25T02:45:21;21.50;90.60
14095;DHT22;18096;48.142;16.290;2022-08-25T02:47:47;21.50;90.60
14095;DHT22;18096;48.142;16.290;2022-08-25T02:50:13;21.50;90.60
14095;DHT22;18096;48.142;16.290;2022-08-25T02:52:39;21.50;90.60
14095;DHT22;18096;48.142;16.290;2022-08-25T02:55:08;21.50;90.60
14095;DHT22;18096;48.142;16.290;2022-08-25T02:57:34;21.50;90.70
14095;DHT22;18096;48.142;16.290;2022-08-25T03:00:00;21.50;90.60
14095;DHT22;18096;48.142;16.290;2022-08-25T03:02:26;21.50;90.70
14095;DHT22;18096;48.142;16.290;2022-08-25T03:04:52;21.50;90.70
14095;DHT22;18096;48.142;16.290;2022-08-25T03:07:19;21.50;90.70
14095;DHT22;18096;48.142;16.290;2022-08-25T03:09:46;21.50;90.70
14095;DHT22;18096;48.142;16.290;2022-08-25T03:12:12;21.50;90.80
14095;DHT22;18096;48.142;16.290;2022-08-25T03:14:39;21.50;90.90
14095;DHT22;18096;48.142;16.290;2022-08-25T03:17:06;21.50;90.90
14095;DHT22;18096;48.142;16.290;2022-08-25T03:19:31;21.50;91.00
14095;DHT22;18096;48.142;16.290;2022-08-25T03:21:57;21.50;91.10
14095;DHT22;18096;48.142;16.290;2022-08-25T03:24:24;21.40;91.10
14095;DHT22;18096;48.142;16.290;2022-08-25T03:26:50;21.50;91.20
14095;DHT22;18096;48.142;16.290;2022-08-25T03:29:24;21.40;91.20
14095;DHT22;18096;48.142;16.290;2022-08-25T03:31:52;21.40;91.20
14095;DHT22;18096;48.142;16.290;2022-08-25T03:34:20;21.40;91.30
14095;DHT22;18096;48.142;16.290;2022-08-25T03:36:48;21.40;91.30
14095;DHT22;18096;48.142;16.290;2022-08-25T03:39:14;21.40;91.30
14095;DHT22;18096;48.142;16.290;2022-08-25T03:41:40;21.40;91.30
14095;DHT22;18096;48.142;16.290;2022-08-25T03:44:06;21.40;91.30
14095;DHT22;18096;48.142;16.290;2022-08-25T03:46:37;21.40;91.40
14095;DHT22;18096;48.142;16.290;2022-08-25T03:49:05;21.40;91.40
14095;DHT22;18096;48.142;16.290;2022-08-25T03:51:39;21.40;91.40
14095;DHT22;18096;48.142;16.290;2022-08-25T03:54:05;21.40;91.40
14095;DHT22;18096;48.142;16.290;2022-08-25T03:56:31;21.30;91.40
14095;DHT22;18096;48.142;16.290;2022-08-25T03:58:58;21.30;91.40
14095;DHT22;18096;48.142;16.290;2022-08-25T04:01:24;21.30;91.40
14095;DHT22;18096;48.142;16.290;2022-08-25T04:03:49;21.30;91.60
14095;DHT22;18096;48.142;16.290;2022-08-25T04:06:16;21.30;91.50
14095;DHT22;18096;48.142;16.290;2022-08-25T04:08:42;21.30;91.50
14095;DHT22;18096;48.142;16.290;2022-08-25T04:11:14;21.30;91.50
14095;DHT22;18096;48.142;16.290;2022-08-25T04:13:42;21.30;91.60
14095;DHT22;18096;48.142;16.290;2022-08-25T04:16:22;21.30;91.60
14095;DHT22;18096;48.142;16.290;2022-08-25T04:18:49;21.30;91.60
14095;DHT22;18096;48.142;16.290;2022-08-25T04:21:16;21.30;91.60
14095;DHT22;18096;48.142;16.290;2022-08-25T04:23:44;21.30;91.70
14095;DHT22;18096;48.142;16.290;2022-08-25T04:26:11;21.30;91.70
14095;DHT22;18096;48.142;16.290;2022-08-25T04:28:37;21.30;91.80
14095;DHT22;18096;48.142;16.290;2022-08-25T04:31:13;21.30;91.80
14095;DHT22;18096;48.142;16.290;2022-08-25T04:33:39;21.30;91.80
14095;DHT22;18096;48.142;16.290;2022-08-25T04:36:06;21.30;91.90
14095;DHT22;18096;48.142;16.290;2022-08-25T04:38:32;21.30;91.90
14095;DHT22;18096;48.142;16.290;2022-08-25T04:41:03;21.30;91.90
14095;DHT22;18096;48.142;16.290;2022-08-25T04:43:30;21.30;91.90
14095;DHT22;18096;48.142;16.290;2022-08-25T04:45:57;21.30;91.90
14095;DHT22;18096;48.142;16.290;2022-08-25T04:48:23;21.30;91.90
14095;DHT22;18096;48.142;16.290;2022-08-25T04:50:48;21.30;91.90
14095;DHT22;18096;48.142;16.290;2022-08-25T04:53:15;21.30;91.90
14095;DHT22;18096;48.142;16.290;2022-08-25T04:55:42;21.30;91.90
14095;DHT22;18096;48.142;16.290;2022-08-25T04:58:08;21.30;91.90
14095;DHT22;18096;48.142;16.290;2022-08-25T05:00:35;21.30;91.90
14095;DHT22;18096;48.142;16.290;2022-08-25T05:03:02;21.40;91.90
14095;DHT22;18096;48.142;16.290;2022-08-25T05:05:28;21.40;91.90
14095;DHT22;18096;48.142;16.290;2022-08-25T05:07:54;21.40;91.90
14095;DHT22;18096;48.142;16.290;2022-08-25T05:10:20;21.40;91.90
14095;DHT22;18096;48.142;16.290;2022-08-25T05:12:46;21.40;91.90
14095;DHT22;18096;48.142;16.290;2022-08-25T05:15:11;21.40;91.90
14095;DHT22;18096;48.142;16.290;2022-08-25T05:17:56;21.40;91.90
14095;DHT22;18096;48.142;16.290;2022-08-25T05:20:22;21.40;91.90
14095;DHT22;18096;48.142;16.290;2022-08-25T05:22:48;21.40;91.80
14095;DHT22;18096;48.142;16.290;2022-08-25T05:25:14;21.50;91.80
14095;DHT22;18096;48.142;16.290;2022-08-25T05:27:41;21.50;91.70
14095;DHT22;18096;48.142;16.290;2022-08-25T05:30:09;21.50;91.50
14095;DHT22;18096;48.142;16.290;2022-08-25T05:32:35;21.60;91.40
14095;DHT22;18096;48.142;16.290;2022-08-25T05:35:00;21.60;91.40
14095;DHT22;18096;48.142;16.290;2022-08-25T05:37:26;21.70;91.40
14095;DHT22;18096;48.142;16.290;2022-08-25T05:39:52;21.70;91.40
14095;DHT22;18096;48.142;16.290;2022-08-25T05:42:17;21.60;91.40
14095;DHT22;18096;48.142;16.290;2022-08-25T05:44:43;21.60;91.40
14095;DHT22;18096;48.142;16.290;2022-08-25T05:47:09;21.60;91.50
14095;DHT22;18096;48.142;16.290;2022-08-25T05:49:34;21.60;91.40
14095;DHT22;18096;48.142;16.290;2022-08-25T05:52:00;21.60;91.30
14095;DHT22;18096;48.142;16.290;2022-08-25T05:54:26;21.60;91.50
14095;DHT22;18096;48.142;16.290;2022-08-25T05:56:51;21.70;91.40
14095;DHT22;18096;48.142;16.290;2022-08-25T05:59:17;21.70;91.20
14095;DHT22;18096;48.142;16.290;2022-08-25T06:01:42;21.80;91.20
14095;DHT22;18096;48.142;16.290;2022-08-25T06:04:27;21.90;91.10
14095;DHT22;18096;48.142;16.290;2022-08-25T06:06:52;21.80;91.10
14095;DHT22;18096;48.142;16.290;2022-08-25T06:09:20;21.80;91.30
14095;DHT22;18096;48.142;16.290;2022-08-25T06:11:47;21.70;91.30
14095;DHT22;18096;48.142;16.290;2022-08-25T06:14:14;21.70;91.40
14095;DHT22;18096;48.142;16.290;2022-08-25T06:16:39;21.60;91.40
14095;DHT22;18096;48.142;16.290;2022-08-25T06:19:07;21.60;91.50
14095;DHT22;18096;48.142;16.290;2022-08-25T06:21:33;21.60;91.60
14095;DHT22;18096;48.142;16.290;2022-08-25T06:23:58;21.60;91.60
14095;DHT22;18096;48.142;16.290;2022-08-25T06:26:24;21.60;91.50
14095;DHT22;18096;48.142;16.290;2022-08-25T06:28:51;21.70;91.50
14095;DHT22;18096;48.142;16.290;2022-08-25T06:31:18;21.70;91.50
14095;DHT22;18096;48.142;16.290;2022-08-25T06:33:44;21.70;91.40
14095;DHT22;18096;48.142;16.290;2022-08-25T06:36:10;21.80;91.30
14095;DHT22;18096;48.142;16.290;2022-08-25T06:38:36;21.80;91.20
14095;DHT22;18096;48.142;16.290;2022-08-25T06:41:03;21.90;91.20
14095;DHT22;18096;48.142;16.290;2022-08-25T06:43:29;21.90;91.10
14095;DHT22;18096;48.142;16.290;2022-08-25T06:45:58;21.80;91.10
14095;DHT22;18096;48.142;16.290;2022-08-25T06:48:24;21.80;91.20
14095;DHT22;18096;48.142;16.290;2022-08-25T06:50:49;21.80;91.20
14095;DHT22;18096;48.142;16.290;2022-08-25T06:53:15;21.80;91.20
14095;DHT22;18096;48.142;16.290;2022-08-25T06:55:41;21.80;91.20
14095;DHT22;18096;48.142;16.290;2022-08-25T06:58:07;21.70;91.30
14095;DHT22;18096;48.142;16.290;2022-08-25T07:00:34;21.70;91.30
14095;DHT22;18096;48.142;16.290;2022-08-25T07:02:59;21.70;91.40
14095;DHT22;18096;48.142;16.290;2022-08-25T07:05:26;21.70;91.30
14095;DHT22;18096;48.142;16.290;2022-08-25T07:07:52;21.70;91.30
14095;DHT22;18096;48.142;16.290;2022-08-25T07:10:17;21.70;91.30
14095;DHT22;18096;48.142;16.290;2022-08-25T07:12:43;21.80;91.40
14095;DHT22;18096;48.142;16.290;2022-08-25T07:15:09;21.80;91.30
14095;DHT22;18096;48.142;16.290;2022-08-25T07:17:35;21.80;91.40
14095;DHT22;18096;48.142;16.290;2022-08-25T07:20:01;21.80;91.30
14095;DHT22;18096;48.142;16.290;2022-08-25T07:22:26;21.80;91.30
14095;DHT22;18096;48.142;16.290;2022-08-25T07:24:52;21.80;91.30
14095;DHT22;18096;48.142;16.290;2022-08-25T07:27:18;21.80;91.30
14095;DHT22;18096;48.142;16.290;2022-08-25T07:29:44;21.80;91.30
14095;DHT22;18096;48.142;16.290;2022-08-25T07:32:10;21.80;91.20
14095;DHT22;18096;48.142;16.290;2022-08-25T07:34:36;21.90;91.10
14095;DHT22;18096;48.142;16.290;2022-08-25T07:37:21;22.00;91.10
14095;DHT22;18096;48.142;16.290;2022-08-25T07:39:47;22.00;91.10
14095;DHT22;18096;48.142;16.290;2022-08-25T07:42:13;22.00;91.00
14095;DHT22;18096;48.142;16.290;2022-08-25T07:44:38;22.00;91.00
14095;DHT22;18096;48.142;16.290;2022-08-25T07:47:04;22.10;91.00
14095;DHT22;18096;48.142;16.290;2022-08-25T07:49:30;22.10;90.90
14095;DHT22;18096;48.142;16.290;2022-08-25T07:51:55;22.20;90.80
14095;DHT22;18096;48.142;16.290;2022-08-25T07:54:21;22.20;90.80
14095;DHT22;18096;48.142;16.290;2022-08-25T07:56:48;22.20;90.70
14095;DHT22;18096;48.142;16.290;2022-08-25T07:59:13;22.20;90.70
14095;DHT22;18096;48.142;16.290;2022-08-25T08:01:39;22.10;90.70
14095;DHT22;18096;48.142;16.290;2022-08-25T08:04:05;22.10;90.90
14095;DHT22;18096;48.142;16.290;2022-08-25T08:06:31;22.20;90.90
14095;DHT22;18096;48.142;16.290;2022-08-25T08:08:57;22.20;90.90
14095;DHT22;18096;48.142;16.290;2022-08-25T08:11:27;22.20;90.80
14095;DHT22;18096;48.142;16.290;2022-08-25T08:13:54;22.30;90.70
14095;DHT22;18096;48.142;16.290;2022-08-25T08:16:22;22.30;90.80
14095;DHT22;18096;48.142;16.290;2022-08-25T08:18:48;22.30;90.80
14095;DHT22;18096;48.142;16.290;2022-08-25T08:21:22;22.30;90.80
14095;DHT22;18096;48.142;16.290;2022-08-25T08:23:49;22.30;90.80
14095;DHT22;18096;48.142;16.290;2022-08-25T08:26:17;22.30;91.00
14095;DHT22;18096;48.142;16.290;2022-08-25T08:28:43;22.30;90.90
14095;DHT22;18096;48.142;16.290;2022-08-25T08:31:09;22.30;90.80
14095;DHT22;18096;48.142;16.290;2022-08-25T08:33:35;22.30;90.80
14095;DHT22;18096;48.142;16.290;2022-08-25T08:36:05;22.40;90.70
14095;DHT22;18096;48.142;16.290;2022-08-25T08:38:33;22.50;90.60
14095;DHT22;18096;48.142;16.290;2022-08-25T08:41:05;22.60;90.60
14095;DHT22;18096;48.142;16.290;2022-08-25T08:43:59;22.60;90.50
14095;DHT22;18096;48.142;16.290;2022-08-25T08:46:38;22.70;90.50
14095;DHT22;18096;48.142;16.290;2022-08-25T08:49:10;22.70;90.50
14095;DHT22;18096;48.142;16.290;2022-08-25T08:51:48;22.80;90.40
14095;DHT22;18096;48.142;16.290;2022-08-25T08:54:19;22.80;90.40
14095;DHT22;18096;48.142;16.290;2022-08-25T08:57:01;22.80;90.30
14095;DHT22;18096;48.142;16.290;2022-08-25T08:59:32;22.80;90.20
14095;DHT22;18096;48.142;16.290;2022-08-25T09:02:03;22.90;90.10
14095;DHT22;18096;48.142;16.290;2022-08-25T09:04:37;22.90;89.90
14095;DHT22;18096;48.142;16.290;2022-08-25T09:07:13;22.90;89.60
14095;DHT22;18096;48.142;16.290;2022-08-25T09:09:41;23.00;89.80
14095;DHT22;18096;48.142;16.290;2022-08-25T09:18:02;23.20;88.90
14095;DHT22;18096;48.142;16.290;2022-08-25T09:20:51;23.20;87.70
14095;DHT22;18096;48.142;16.290;2022-08-25T09:29:11;23.30;88.10
14095;DHT22;18096;48.142;16.290;2022-08-25T09:31:40;23.40;88.20
14095;DHT22;18096;48.142;16.290;2022-08-25T09:34:20;23.40;87.00
14095;DHT22;18096;48.142;16.290;2022-08-25T09:36:46;23.50;87.40
14095;DHT22;18096;48.142;16.290;2022-08-25T09:39:15;23.50;87.60
14095;DHT22;18096;48.142;16.290;2022-08-25T09:44:16;23.70;87.20
14095;DHT22;18096;48.142;16.290;2022-08-25T09:46:58;23.80;86.00
14095;DHT22;18096;48.142;16.290;2022-08-25T10:00:31;23.90;85.40
14095;DHT22;18096;48.142;16.290;2022-08-25T10:03:11;24.00;85.20
14095;DHT22;18096;48.142;16.290;2022-08-25T10:06:06;24.00;85.50
14095;DHT22;18096;48.142;16.290;2022-08-25T10:08:34;24.00;85.30
14095;DHT22;18096;48.142;16.290;2022-08-25T10:11:03;24.00;84.60
14095;DHT22;18096;48.142;16.290;2022-08-25T10:13:44;23.90;84.60
14095;DHT22;18096;48.142;16.290;2022-08-25T10:16:27;23.90;84.60
14095;DHT22;18096;48.142;16.290;2022-08-25T10:21:34;23.90;84.60
14095;DHT22;18096;48.142;16.290;2022-08-25T10:24:00;23.90;84.10
14095;DHT22;18096;48.142;16.290;2022-08-25T10:34:58;24.20;82.60
14095;DHT22;18096;48.142;16.290;2022-08-25T10:42:40;24.60;81.10
14095;DHT22;18096;48.142;16.290;2022-08-25T10:45:21;24.60;81.50
14095;DHT22;18096;48.142;16.290;2022-08-25T10:51:07;24.70;81.30
14095;DHT22;18096;48.142;16.290;2022-08-25T10:54:05;24.80;81.30
14095;DHT22;18096;48.142;16.290;2022-08-25T10:56:40;24.80;81.40
14095;DHT22;18096;48.142;16.290;2022-08-25T11:05:09;24.90;79.40
14095;DHT22;18096;48.142;16.290;2022-08-25T11:07:48;24.90;79.20
14095;DHT22;18096;48.142;16.290;2022-08-25T11:10:21;25.00;78.40
14095;DHT22;18096;48.142;16.290;2022-08-25T11:12:49;25.00;77.80
14095;DHT22;18096;48.142;16.290;2022-08-25T11:15:17;25.10;77.70
14095;DHT22;18096;48.142;16.290;2022-08-25T11:17:55;25.20;78.30
14095;DHT22;18096;48.142;16.290;2022-08-25T11:20:36;25.20;78.00
14095;DHT22;18096;48.142;16.290;2022-08-25T11:23:26;25.30;78.10
14095;DHT22;18096;48.142;16.290;2022-08-25T11:26:02;25.40;76.50
14095;DHT22;18096;48.142;16.290;2022-08-25T11:31:00;25.40;76.30
14095;DHT22;18096;48.142;16.290;2022-08-25T11:33:28;25.40;76.40
14095;DHT22;18096;48.142;16.290;2022-08-25T11:44:16;25.30;76.40
14095;DHT22;18096;48.142;16.290;2022-08-25T11:52:43;25.40;75.90
14095;DHT22;18096;48.142;16.290;2022-08-25T11:55:43;25.40;75.30
14095;DHT22;18096;48.142;16.290;2022-08-25T11:58:27;25.40;75.80
14095;DHT22;18096;48.142;16.290;2022-08-25T12:00:57;25.40;76.90
14095;DHT22;18096;48.142;16.290;2022-08-25T12:22:37;25.90;72.10
14095;DHT22;18096;48.142;16.290;2022-08-25T12:43:25;26.20;70.50
14095;DHT22;18096;48.142;16.290;2022-08-25T12:54:21;26.00;70.60
14095;DHT22;18096;48.142;16.290;2022-08-25T12:57:00;26.00;71.00
14095;DHT22;18096;48.142;16.290;2022-08-25T13:07:45;25.90;72.90
14095;DHT22;18096;48.142;16.290;2022-08-25T13:13:08;25.80;72.90
14095;DHT22;18096;48.142;16.290;2022-08-25T13:15:36;25.80;72.90
14095;DHT22;18096;48.142;16.290;2022-08-25T13:18:22;25.80;72.20
14095;DHT22;18096;48.142;16.290;2022-08-25T13:20:54;25.80;71.80
14095;DHT22;18096;48.142;16.290;2022-08-25T13:23:28;25.80;72.00
14095;DHT22;18096;48.142;16.290;2022-08-25T13:25:55;25.80;72.40
14095;DHT22;18096;48.142;16.290;2022-08-25T13:28:26;25.70;71.60
14095;DHT22;18096;48.142;16.290;2022-08-25T13:31:05;25.80;71.40
14095;DHT22;18096;48.142;16.290;2022-08-25T13:33:32;25.90;71.10
14095;DHT22;18096;48.142;16.290;2022-08-25T13:36:00;25.90;69.60
14095;DHT22;18096;48.142;16.290;2022-08-25T13:38:46;26.00;69.20
14095;DHT22;18096;48.142;16.290;2022-08-25T13:41:21;26.00;69.50
14095;DHT22;18096;48.142;16.290;2022-08-25T13:43:49;26.00;69.20
14095;DHT22;18096;48.142;16.290;2022-08-25T13:46:20;26.10;69.70
14095;DHT22;18096;48.142;16.290;2022-08-25T13:48:46;26.10;69.60
14095;DHT22;18096;48.142;16.290;2022-08-25T13:51:19;26.30;69.20
14095;DHT22;18096;48.142;16.290;2022-08-25T13:56:30;26.50;69.40
14095;DHT22;18096;48.142;16.290;2022-08-25T13:58:59;26.60;69.30
14095;DHT22;18096;48.142;16.290;2022-08-25T14:01:28;26.60;69.40
14095;DHT22;18096;48.142;16.290;2022-08-25T14:04:18;26.60;68.50
14095;DHT22;18096;48.142;16.290;2022-08-25T14:06:41;26.70;68.10
14095;DHT22;18096;48.142;16.290;2022-08-25T14:09:13;26.60;67.80
14095;DHT22;18096;48.142;16.290;2022-08-25T14:11:54;26.60;68.10
14095;DHT22;18096;48.142;16.290;2022-08-25T14:17:07;26.50;68.40
14095;DHT22;18096;48.142;16.290;2022-08-25T14:19:34;26.50;68.00
14095;DHT22;18096;48.142;16.290;2022-08-25T14:22:02;26.60;67.60
14095;DHT22;18096;48.142;16.290;2022-08-25T14:24:33;26.70;67.50
14095;DHT22;18096;48.142;16.290;2022-08-25T14:27:00;26.70;68.30
14095;DHT22;18096;48.142;16.290;2022-08-25T14:29:26;26.70;68.20
14095;DHT22;18096;48.142;16.290;2022-08-25T14:31:52;26.70;68.40
14095;DHT22;18096;48.142;16.290;2022-08-25T14:34:22;26.70;68.70
14095;DHT22;18096;48.142;16.290;2022-08-25T14:36:50;26.70;69.40
14095;DHT22;18096;48.142;16.290;2022-08-25T14:39:16;26.70;66.80
14095;DHT22;18096;48.142;16.290;2022-08-25T14:41:43;26.70;66.20
14095;DHT22;18096;48.142;16.290;2022-08-25T14:44:11;26.70;65.80
14095;DHT22;18096;48.142;16.290;2022-08-25T14:46:44;26.70;65.80
14095;DHT22;18096;48.142;16.290;2022-08-25T14:49:14;26.70;66.00
14095;DHT22;18096;48.142;16.290;2022-08-25T14:51:41;26.70;66.80
14095;DHT22;18096;48.142;16.290;2022-08-25T14:54:10;26.60;67.30
14095;DHT22;18096;48.142;16.290;2022-08-25T14:56:37;26.50;65.90
14095;DHT22;18096;48.142;16.290;2022-08-25T14:59:03;26.50;65.70
14095;DHT22;18096;48.142;16.290;2022-08-25T15:01:29;26.40;66.20
14095;DHT22;18096;48.142;16.290;2022-08-25T15:04:14;26.60;66.60
14095;DHT22;18096;48.142;16.290;2022-08-25T15:06:41;26.70;66.50
14095;DHT22;18096;48.142;16.290;2022-08-25T15:09:08;26.70;67.10
14095;DHT22;18096;48.142;16.290;2022-08-25T15:11:40;26.70;67.30
14095;DHT22;18096;48.142;16.290;2022-08-25T15:14:06;26.70;67.80
14095;DHT22;18096;48.142;16.290;2022-08-25T15:16:36;26.80;66.80
14095;DHT22;18096;48.142;16.290;2022-08-25T15:19:05;26.80;66.60
14095;DHT22;18096;48.142;16.290;2022-08-25T15:21:31;26.90;66.10
14095;DHT22;18096;48.142;16.290;2022-08-25T15:23:57;26.90;66.30
14095;DHT22;18096;48.142;16.290;2022-08-25T15:26:23;26.90;65.30
14095;DHT22;18096;48.142;16.290;2022-08-25T15:28:49;26.90;65.30
14095;DHT22;18096;48.142;16.290;2022-08-25T15:31:17;26.90;66.20
14095;DHT22;18096;48.142;16.290;2022-08-25T15:33:44;26.80;66.30
14095;DHT22;18096;48.142;16.290;2022-08-25T15:36:12;26.80;66.30
14095;DHT22;18096;48.142;16.290;2022-08-25T15:38:39;26.80;66.60
14095;DHT22;18096;48.142;16.290;2022-08-25T15:41:07;26.80;66.70
14095;DHT22;18096;48.142;16.290;2022-08-25T15:43:33;26.80;66.30
14095;DHT22;18096;48.142;16.290;2022-08-25T15:45:59;26.70;66.60
14095;DHT22;18096;48.142;16.290;2022-08-25T15:48:26;26.80;66.70
14095;DHT22;18096;48.142;16.290;2022-08-25T15:50:55;26.80;66.80
14095;DHT22;18096;48.142;16.290;2022-08-25T15:53:23;26.80;66.80
14095;DHT22;18096;48.142;16.290;2022-08-25T15:55:50;26.80;66.20
14095;DHT22;18096;48.142;16.290;2022-08-25T15:58:16;26.90;66.50
14095;DHT22;18096;48.142;16.290;2022-08-25T16:00:43;26.90;66.40
14095;DHT22;18096;48.142;16.290;2022-08-25T16:03:10;26.90;65.80
14095;DHT22;18096;48.142;16.290;2022-08-25T16:05:37;27.00;65.90
14095;DHT22;18096;48.142;16.290;2022-08-25T16:08:03;27.00;66.30
14095;DHT22;18096;48.142;16.290;2022-08-25T16:10:38;26.90;66.60
14095;DHT22;18096;48.142;16.290;2022-08-25T16:13:04;26.80;67.20
14095;DHT22;18096;48.142;16.290;2022-08-25T16:15:30;26.70;67.10
14095;DHT22;18096;48.142;16.290;2022-08-25T16:17:58;26.70;66.80
14095;DHT22;18096;48.142;16.290;2022-08-25T16:20:25;26.70;66.10
14095;DHT22;18096;48.142;16.290;2022-08-25T16:22:51;26.70;66.40
14095;DHT22;18096;48.142;16.290;2022-08-25T16:25:16;26.60;66.80
14095;DHT22;18096;48.142;16.290;2022-08-25T16:27:42;26.60;67.10
14095;DHT22;18096;48.142;16.290;2022-08-25T16:30:11;26.50;65.10
14095;DHT22;18096;48.142;16.290;2022-08-25T16:32:37;26.60;65.00
14095;DHT22;18096;48.142;16.290;2022-08-25T16:35:04;26.60;65.80
14095;DHT22;18096;48.142;16.290;2022-08-25T16:37:32;26.50;66.30
14095;DHT22;18096;48.142;16.290;2022-08-25T16:39:59;26.40;66.50
14095;DHT22;18096;48.142;16.290;2022-08-25T16:42:24;26.40;66.60
14095;DHT22;18096;48.142;16.290;2022-08-25T16:44:51;26.40;66.50
14095;DHT22;18096;48.142;16.290;2022-08-25T16:47:17;26.30;66.90
14095;DHT22;18096;48.142;16.290;2022-08-25T16:49:44;26.30;67.00
14095;DHT22;18096;48.142;16.290;2022-08-25T16:52:11;26.30;68.00
14095;DHT22;18096;48.142;16.290;2022-08-25T16:54:55;26.20;68.10
14095;DHT22;18096;48.142;16.290;2022-08-25T16:57:45;26.20;67.80
14095;DHT22;18096;48.142;16.290;2022-08-25T17:00:13;26.10;68.30
14095;DHT22;18096;48.142;16.290;2022-08-25T17:02:40;26.00;68.10
14095;DHT22;18096;48.142;16.290;2022-08-25T17:05:07;26.00;68.00
14095;DHT22;18096;48.142;16.290;2022-08-25T17:07:33;26.00;67.90
14095;DHT22;18096;48.142;16.290;2022-08-25T17:09:59;26.00;67.60
14095;DHT22;18096;48.142;16.290;2022-08-25T17:12:25;25.90;67.50
14095;DHT22;18096;48.142;16.290;2022-08-25T17:14:51;25.90;67.50
14095;DHT22;18096;48.142;16.290;2022-08-25T17:17:17;26.00;67.60
14095;DHT22;18096;48.142;16.290;2022-08-25T17:19:43;25.90;67.50
14095;DHT22;18096;48.142;16.290;2022-08-25T17:22:09;25.90;68.40
14095;DHT22;18096;48.142;16.290;2022-08-25T17:24:39;25.90;68.10
14095;DHT22;18096;48.142;16.290;2022-08-25T17:27:05;25.80;68.30
14095;DHT22;18096;48.142;16.290;2022-08-25T17:29:31;25.80;68.60
14095;DHT22;18096;48.142;16.290;2022-08-25T17:31:58;25.70;68.90
14095;DHT22;18096;48.142;16.290;2022-08-25T17:34:24;25.70;69.20
14095;DHT22;18096;48.142;16.290;2022-08-25T17:36:51;25.50;69.30